Enon, Virginia
Current Conditions -  °F | °C
As of 6:15 AM on Sunday 23 Nov 2014 (Local Time) from KEZF Reporting Station
Clear Clear  
Wind Chill: 34°   Ceiling: Unl
Heat Index: 37°   Visibility: 10mi
Dew Point: 19°   Wind: 5mph
Humidity: 48%   Direction: 170°S
Pressure: 30.23"   Gusts: NA
Location:  38.2993°N, 77.4869°W
Report Text: KEZF 231115Z AUTO 17004KT 10SM CLR 03/M07 A3023 RMK AO2
Loading
Personal Weather Stations






























Interactive Weather Map New forecast layout! Learn more

10-Day Weather Forecast

Advertisements
Track Severe Weather on mobile